createdAt,value
2018-10-03T00:01:03.175Z,20.63
2018-10-03T00:03:33.511Z,14.40
2018-10-03T00:06:02.561Z,11.93
2018-10-03T00:08:31.689Z,15.40
2018-10-03T00:11:00.676Z,17.20
2018-10-03T00:13:29.789Z,17.40
2018-10-03T00:15:58.847Z,12.40
2018-10-03T00:18:27.841Z,14.00
2018-10-03T00:20:56.893Z,15.37
2018-10-03T00:23:26.054Z,17.93
2018-10-03T00:25:55.001Z,13.57
2018-10-03T00:28:24.023Z,16.33
2018-10-03T00:30:53.238Z,15.40
2018-10-03T00:33:22.327Z,13.53
2018-10-03T00:35:51.395Z,15.30
2018-10-03T00:38:20.393Z,16.70
2018-10-03T00:40:49.427Z,14.93
2018-10-03T00:43:18.494Z,19.30
2018-10-03T00:45:47.556Z,14.80
2018-10-03T00:48:16.562Z,15.07
2018-10-03T00:50:45.570Z,11.47
2018-10-03T00:53:14.599Z,13.50
2018-10-03T00:55:43.597Z,22.50
2018-10-03T00:58:12.590Z,15.83
2018-10-03T01:00:41.643Z,13.63
2018-10-03T01:03:10.753Z,12.97
2018-10-03T01:05:39.808Z,15.63
2018-10-03T01:08:08.819Z,15.73
2018-10-03T01:10:37.847Z,12.80
2018-10-03T01:13:07.180Z,13.13
2018-10-03T01:15:36.213Z,11.10
2018-10-03T01:18:05.242Z,13.43
2018-10-03T01:20:34.318Z,15.03
2018-10-03T01:23:03.335Z,10.53
2018-10-03T01:25:32.390Z,20.83
2018-10-03T01:28:01.388Z,16.30
2018-10-03T01:30:30.404Z,12.50
2018-10-03T01:32:59.512Z,13.70
2018-10-03T01:35:28.595Z,16.93
2018-10-03T01:37:57.678Z,12.20
2018-10-03T01:40:26.644Z,14.10
2018-10-03T01:43:01.815Z,17.27
2018-10-03T01:45:30.874Z,17.53
2018-10-03T01:47:59.882Z,10.67
2018-10-03T01:50:28.902Z,12.93
2018-10-03T01:52:58.009Z,11.63
2018-10-03T01:55:27.138Z,15.00
2018-10-03T01:57:56.154Z,17.60
2018-10-03T02:00:25.198Z,12.00
2018-10-03T02:02:54.272Z,13.47
2018-10-03T02:05:23.346Z,14.97
2018-10-03T02:07:52.451Z,18.37
2018-10-03T02:10:21.451Z,14.37
2018-10-03T02:12:50.541Z,15.53
2018-10-03T02:15:19.624Z,12.60
2018-10-03T02:17:48.638Z,16.60
2018-10-03T02:20:17.726Z,14.13
2018-10-03T02:22:46.834Z,13.90
2018-10-03T02:25:15.905Z,10.33
2018-10-03T02:27:44.881Z,14.73
2018-10-03T02:30:13.898Z,11.00
2018-10-03T02:32:43.014Z,10.30
2018-10-03T02:35:13.108Z,10.97
2018-10-03T02:37:42.093Z,13.77
2018-10-03T02:40:11.045Z,16.37
2018-10-03T02:42:40.085Z,10.67
2018-10-03T02:45:09.200Z,15.63
2018-10-03T02:47:38.264Z,11.87
2018-10-03T02:50:07.299Z,15.00
2018-10-03T02:52:36.393Z,16.63
2018-10-03T02:55:05.497Z,18.93
2018-10-03T02:57:34.550Z,17.10
2018-10-03T03:00:03.656Z,11.03
2018-10-03T03:02:32.761Z,20.57
2018-10-03T03:05:01.859Z,18.13
2018-10-03T03:07:30.919Z,11.67
2018-10-03T03:09:59.885Z,16.47
2018-10-03T03:12:28.933Z,17.43
2018-10-03T03:14:58.065Z,15.23
2018-10-03T03:17:27.109Z,18.00
2018-10-03T03:20:02.964Z,13.70
2018-10-03T03:22:31.944Z,16.93
2018-10-03T03:25:00.933Z,15.43
2018-10-03T03:27:29.938Z,15.63
2018-10-03T03:29:59.045Z,18.67
2018-10-03T03:32:28.177Z,17.17
2018-10-03T03:34:57.249Z,12.93
2018-10-03T03:37:26.364Z,12.57
2018-10-03T03:39:55.413Z,15.23
2018-10-03T03:42:24.534Z,15.17
2018-10-03T03:44:53.671Z,18.30
2018-10-03T03:47:22.899Z,16.03
2018-10-03T03:49:51.895Z,18.27
2018-10-03T03:52:20.932Z,19.20
2018-10-03T03:54:49.982Z,13.97
2018-10-03T03:57:18.977Z,14.57
2018-10-03T03:59:47.991Z,17.27
2018-10-03T04:02:17.127Z,12.33
2018-10-03T04:04:48.617Z,17.17
2018-10-03T04:07:17.663Z,15.50
2018-10-03T04:09:46.735Z,17.67
2018-10-03T04:12:15.793Z,21.13
2018-10-03T04:14:44.837Z,17.47
2018-10-03T04:17:13.799Z,15.97
2018-10-03T04:19:42.777Z,18.13
2018-10-03T04:22:11.770Z,20.13
2018-10-03T04:24:40.807Z,19.57
2018-10-03T04:27:09.852Z,16.37
2018-10-03T04:29:41.915Z,19.50
2018-10-03T04:32:10.942Z,27.27
2018-10-03T04:34:40.097Z,16.70
2018-10-03T04:37:10.644Z,24.40
2018-10-03T04:39:39.657Z,19.97
2018-10-03T04:42:08.802Z,21.53
2018-10-03T04:44:37.806Z,20.50
2018-10-03T04:47:06.818Z,21.23
2018-10-03T04:49:35.816Z,24.60
2018-10-03T04:52:04.834Z,24.93
2018-10-03T04:54:34.781Z,27.30
2018-10-03T04:57:03.845Z,19.10
2018-10-03T04:59:32.950Z,26.03
2018-10-03T05:02:02.010Z,28.23
2018-10-03T05:04:31.018Z,28.50
2018-10-03T05:07:00.259Z,17.47
2018-10-03T05:09:30.134Z,23.90
2018-10-03T05:11:59.250Z,24.97
2018-10-03T05:14:28.348Z,25.87
2018-10-03T05:16:57.654Z,24.37
2018-10-03T05:19:26.898Z,24.70
2018-10-03T05:21:55.874Z,26.50
2018-10-03T05:24:24.924Z,26.60
2018-10-03T05:26:54.006Z,24.27
2018-10-03T05:29:23.088Z,25.83
2018-10-03T05:31:52.082Z,20.97
2018-10-03T05:34:21.093Z,28.23
2018-10-03T05:36:50.102Z,28.63
2018-10-03T05:39:19.142Z,33.10
2018-10-03T05:41:48.118Z,23.43
2018-10-03T05:44:17.239Z,30.77
2018-10-03T05:46:46.298Z,29.47
2018-10-03T05:49:16.523Z,25.37
2018-10-03T05:51:45.502Z,27.60
2018-10-03T05:54:14.503Z,29.17
2018-10-03T05:56:43.521Z,29.07
2018-10-03T05:59:12.562Z,35.23
2018-10-03T06:01:41.677Z,25.67
2018-10-03T06:04:10.732Z,25.43
2018-10-03T06:06:39.889Z,24.43
2018-10-03T06:09:10.460Z,24.27
2018-10-03T06:11:39.854Z,24.23
2018-10-03T06:14:09.181Z,33.93
2018-10-03T06:16:38.307Z,29.80
2018-10-03T06:19:07.407Z,24.70
2018-10-03T06:21:36.551Z,29.53
2018-10-03T06:24:05.941Z,27.50
2018-10-03T06:26:36.911Z,28.10
2018-10-03T06:29:05.909Z,29.53
2018-10-03T06:31:35.100Z,30.30
2018-10-03T06:34:04.194Z,31.23
2018-10-03T06:36:34.031Z,30.50
2018-10-03T06:39:03.409Z,28.57
2018-10-03T06:41:32.429Z,33.47
2018-10-03T06:44:01.529Z,32.60
2018-10-03T06:46:30.623Z,31.77
2018-10-03T06:48:59.743Z,27.07
2018-10-03T06:51:28.779Z,33.23
2018-10-03T06:53:58.085Z,29.37
2018-10-03T06:56:27.161Z,27.93
2018-10-03T06:58:56.282Z,32.90
2018-10-03T07:01:25.382Z,31.67
2018-10-03T07:03:54.463Z,37.63
2018-10-03T07:06:23.577Z,31.57
2018-10-03T07:08:52.605Z,28.53
2018-10-03T07:11:21.631Z,25.47
2018-10-03T07:13:50.727Z,32.90
2018-10-03T07:16:20.144Z,33.27
2018-10-03T07:18:49.227Z,28.63
2018-10-03T07:21:18.308Z,35.03
2018-10-03T07:23:47.316Z,26.10
2018-10-03T07:26:16.556Z,36.13
2018-10-03T07:28:45.620Z,32.87
2018-10-03T07:31:14.716Z,37.77
2018-10-03T07:33:43.845Z,30.87
2018-10-03T07:36:12.922Z,34.70
2018-10-03T07:38:42.114Z,34.50
2018-10-03T07:41:11.187Z,34.77
2018-10-03T07:43:40.273Z,29.70
2018-10-03T07:46:09.326Z,30.00
2018-10-03T07:48:38.474Z,33.27
2018-10-03T07:51:07.570Z,37.00
2018-10-03T07:53:36.781Z,33.90
2018-10-03T07:56:05.808Z,35.47
2018-10-03T07:58:34.878Z,29.57
2018-10-03T08:01:03.946Z,36.67
2018-10-03T08:03:32.924Z,31.97
2018-10-03T08:06:01.967Z,29.83
2018-10-03T08:08:31.053Z,29.77
2018-10-03T08:11:00.119Z,22.80
2018-10-03T08:13:29.770Z,25.13
2018-10-03T08:15:58.838Z,34.57
2018-10-03T08:18:27.930Z,41.67
2018-10-03T08:20:57.024Z,29.13
2018-10-03T08:23:26.105Z,29.30
2018-10-03T08:25:55.102Z,32.53
2018-10-03T08:28:24.219Z,36.17
2018-10-03T08:30:53.310Z,28.37
2018-10-03T08:33:22.425Z,29.77
2018-10-03T08:35:51.502Z,27.23
2018-10-03T08:38:20.659Z,28.67
2018-10-03T08:40:49.650Z,26.23
2018-10-03T08:43:20.631Z,25.50
2018-10-03T08:45:49.694Z,29.27
2018-10-03T08:48:18.718Z,31.13
2018-10-03T08:50:47.800Z,31.10
2018-10-03T08:53:16.868Z,35.60
2018-10-03T08:55:46.022Z,28.33
2018-10-03T08:58:15.187Z,29.80
2018-10-03T09:00:44.170Z,24.20
2018-10-03T09:03:13.172Z,30.73
2018-10-03T09:05:42.274Z,34.00
2018-10-03T09:08:17.927Z,31.50
2018-10-03T09:10:47.962Z,28.93
2018-10-03T09:13:16.973Z,31.60
2018-10-03T09:15:46.043Z,28.47
2018-10-03T09:18:15.226Z,31.53
2018-10-03T09:20:44.250Z,26.20
2018-10-03T09:23:14.074Z,27.33
2018-10-03T09:25:43.126Z,29.60
2018-10-03T09:28:12.318Z,29.97
2018-10-03T09:30:41.433Z,26.50
2018-10-03T09:33:10.538Z,29.70
2018-10-03T09:35:39.618Z,22.77
2018-10-03T09:38:08.702Z,24.47
2018-10-03T09:40:37.792Z,26.10
2018-10-03T09:43:07.090Z,30.60
2018-10-03T09:45:36.114Z,23.73
2018-10-03T09:48:05.225Z,32.20
2018-10-03T09:50:34.293Z,25.77
2018-10-03T09:53:03.405Z,27.97
2018-10-03T09:55:32.379Z,28.80
2018-10-03T09:58:01.421Z,31.00
2018-10-03T10:00:35.984Z,23.30
2018-10-03T10:03:04.994Z,25.60
2018-10-03T10:05:33.981Z,24.40
2018-10-03T10:08:03.081Z,21.80
2018-10-03T10:10:32.079Z,24.67
2018-10-03T10:13:01.101Z,23.50
2018-10-03T10:15:30.193Z,23.77
2018-10-03T10:17:59.244Z,24.20
2018-10-03T10:20:28.287Z,24.07
2018-10-03T10:22:57.307Z,20.43
2018-10-03T10:25:26.652Z,23.03
2018-10-03T10:27:55.679Z,21.67
2018-10-03T10:30:24.721Z,22.07
2018-10-03T10:32:53.909Z,30.83
2018-10-03T10:35:22.905Z,22.83
2018-10-03T10:37:52.090Z,24.07
2018-10-03T10:40:21.164Z,22.07
2018-10-03T10:42:50.073Z,26.03
2018-10-03T10:45:19.063Z,22.07
2018-10-03T10:47:48.078Z,26.77
2018-10-03T10:50:17.105Z,26.07
2018-10-03T10:52:46.180Z,22.53
2018-10-03T10:55:15.995Z,23.77
2018-10-03T10:57:45.084Z,21.93
2018-10-03T11:00:14.119Z,31.30
2018-10-03T11:02:44.202Z,19.13
2018-10-03T11:05:13.278Z,26.10
2018-10-03T11:07:42.419Z,22.00
2018-10-03T11:10:11.543Z,26.10
2018-10-03T11:12:40.534Z,20.63
2018-10-03T11:15:09.601Z,18.33
2018-10-03T11:17:38.698Z,21.60
2018-10-03T11:20:07.846Z,20.83
2018-10-03T11:22:36.867Z,23.37
2018-10-03T11:25:05.889Z,25.17
2018-10-03T11:27:35.566Z,22.20
2018-10-03T11:30:04.888Z,20.07
2018-10-03T11:32:33.970Z,20.60
2018-10-03T11:35:03.046Z,18.73
2018-10-03T11:37:32.257Z,21.47
2018-10-03T11:40:01.390Z,22.07
2018-10-03T11:42:30.446Z,22.73
2018-10-03T11:44:59.522Z,21.23
2018-10-03T11:47:28.610Z,16.60
2018-10-03T11:49:57.734Z,19.93
2018-10-03T11:52:26.814Z,25.03
2018-10-03T11:54:55.810Z,24.77
2018-10-03T11:57:24.946Z,22.50
2018-10-03T11:59:53.986Z,23.00
2018-10-03T12:02:23.008Z,26.13
2018-10-03T12:04:52.100Z,22.33
2018-10-03T12:07:21.105Z,20.93
2018-10-03T12:09:50.224Z,21.57
2018-10-03T12:12:19.273Z,18.73
2018-10-03T12:14:48.370Z,19.20
2018-10-03T12:17:17.518Z,25.93
2018-10-03T12:19:46.674Z,20.60
2018-10-03T12:22:15.880Z,20.03
2018-10-03T12:24:44.880Z,25.37
2018-10-03T12:27:13.983Z,24.17
2018-10-03T12:29:43.071Z,20.07
2018-10-03T12:32:12.497Z,21.53
2018-10-03T12:34:41.841Z,17.70
2018-10-03T12:37:10.893Z,19.10
2018-10-03T12:39:39.973Z,25.43
2018-10-03T12:42:09.003Z,22.97
2018-10-03T12:44:38.041Z,21.77
2018-10-03T12:47:07.299Z,17.80
2018-10-03T12:49:36.403Z,21.10
2018-10-03T12:52:05.533Z,21.37
2018-10-03T12:54:34.664Z,19.17
2018-10-03T12:57:03.754Z,22.83
2018-10-03T12:59:32.923Z,18.03
2018-10-03T13:02:02.045Z,24.30
2018-10-03T13:04:31.302Z,21.73
2018-10-03T13:07:00.412Z,23.37
2018-10-03T13:09:29.517Z,19.47
2018-10-03T13:11:58.601Z,26.20
2018-10-03T13:14:27.709Z,25.17
2018-10-03T13:16:56.805Z,28.97
2018-10-03T13:19:25.931Z,26.27
2018-10-03T13:21:54.953Z,17.63
2018-10-03T13:24:24.044Z,18.33
2018-10-03T13:26:53.170Z,21.10
2018-10-03T13:29:22.271Z,22.50
2018-10-03T13:31:51.409Z,17.10
2018-10-03T13:34:20.452Z,20.30
2018-10-03T13:36:49.427Z,26.30
2018-10-03T13:39:18.499Z,24.07
2018-10-03T13:41:47.575Z,20.03
2018-10-03T13:44:16.545Z,23.57
2018-10-03T13:46:45.624Z,21.57
2018-10-03T13:49:14.821Z,19.27
2018-10-03T13:51:44.007Z,26.37
2018-10-03T13:54:13.021Z,24.43
2018-10-03T13:56:42.049Z,19.40
2018-10-03T13:59:11.089Z,19.40
2018-10-03T14:01:40.329Z,22.50
2018-10-03T14:04:09.371Z,19.57
2018-10-03T14:06:38.637Z,17.57
2018-10-03T14:09:09.532Z,24.50
2018-10-03T14:11:38.657Z,15.77
2018-10-03T14:14:07.687Z,21.60
2018-10-03T14:16:36.715Z,23.73
2018-10-03T14:19:05.849Z,22.87
2018-10-03T14:21:34.925Z,17.57
2018-10-03T14:24:03.940Z,16.63
2018-10-03T14:26:33.014Z,20.33
2018-10-03T14:29:02.098Z,19.47
2018-10-03T14:31:31.187Z,21.80
2018-10-03T14:34:00.325Z,27.73
2018-10-03T14:36:29.397Z,15.33
2018-10-03T14:38:58.487Z,17.40
2018-10-03T14:41:29.405Z,19.13
2018-10-03T14:43:58.403Z,18.57
2018-10-03T14:46:27.501Z,17.63
2018-10-03T14:48:56.499Z,24.43
2018-10-03T14:51:25.619Z,20.47
2018-10-03T14:53:54.724Z,17.43
2018-10-03T14:56:23.730Z,18.50
2018-10-03T14:58:53.254Z,22.57
2018-10-03T15:01:22.304Z,18.87
2018-10-03T15:03:51.424Z,22.73
2018-10-03T15:06:20.678Z,19.80
2018-10-03T15:08:49.774Z,16.07
2018-10-03T15:11:18.934Z,20.43
2018-10-03T15:13:47.968Z,22.07
2018-10-03T15:16:17.038Z,19.23
2018-10-03T15:18:46.102Z,20.00
2018-10-03T15:21:15.245Z,23.23
2018-10-03T15:23:45.576Z,15.80
2018-10-03T15:26:15.074Z,23.67
2018-10-03T15:28:44.172Z,21.93
2018-10-03T15:31:13.371Z,20.63
2018-10-03T15:33:42.666Z,19.83
2018-10-03T15:36:12.011Z,20.90
2018-10-03T15:38:41.150Z,15.73
2018-10-03T15:41:10.226Z,22.67
2018-10-03T15:43:39.331Z,19.70
2018-10-03T15:46:08.422Z,20.07
2018-10-03T15:48:37.433Z,20.07
2018-10-03T15:51:06.746Z,23.77
2018-10-03T15:53:35.790Z,20.57
2018-10-03T15:56:04.834Z,18.23
2018-10-03T15:58:33.917Z,16.47
2018-10-03T16:01:02.950Z,15.37
2018-10-03T16:03:33.049Z,17.07
2018-10-03T16:06:02.198Z,17.30
2018-10-03T16:08:31.298Z,22.27
2018-10-03T16:11:00.339Z,15.77
2018-10-03T16:13:29.461Z,21.20
2018-10-03T16:15:58.545Z,20.97
2018-10-03T16:18:27.599Z,19.80
2018-10-03T16:20:56.665Z,18.13
2018-10-03T16:23:25.735Z,24.77
2018-10-03T16:25:54.745Z,19.63
2018-10-03T16:28:23.784Z,19.73
2018-10-03T16:30:52.897Z,21.10
2018-10-03T16:33:22.086Z,23.60
2018-10-03T16:35:53.008Z,19.03
2018-10-03T16:38:22.152Z,21.70
2018-10-03T16:40:51.217Z,22.17
2018-10-03T16:43:20.302Z,16.30
2018-10-03T16:45:49.317Z,22.70
2018-10-03T16:48:18.392Z,24.30
2018-10-03T16:50:47.597Z,23.70
2018-10-03T16:53:16.590Z,18.87
2018-10-03T16:55:45.670Z,22.63
2018-10-03T16:58:14.884Z,17.03
2018-10-03T17:00:43.982Z,20.87
2018-10-03T17:05:52.489Z,20.80
2018-10-03T17:08:21.569Z,15.03
2018-10-03T17:10:50.639Z,20.37
2018-10-03T17:13:19.805Z,20.83
2018-10-03T17:15:49.403Z,20.20
2018-10-03T17:18:18.526Z,23.43
2018-10-03T17:20:47.608Z,17.30
2018-10-03T17:23:16.601Z,16.70
2018-10-03T17:25:45.678Z,18.63
2018-10-03T17:28:14.801Z,17.63
2018-10-03T17:30:43.798Z,17.27
2018-10-03T17:33:12.971Z,20.87
2018-10-03T17:35:42.037Z,20.83
2018-10-03T17:38:11.161Z,20.97
2018-10-03T17:40:40.302Z,22.17
2018-10-03T17:43:09.401Z,18.30
2018-10-03T17:45:38.430Z,22.33
2018-10-03T17:48:07.544Z,17.97
2018-10-03T17:50:37.212Z,17.97
2018-10-03T17:53:06.316Z,16.93
2018-10-03T17:55:35.362Z,17.30
2018-10-03T17:58:04.357Z,22.03
2018-10-03T18:00:33.431Z,18.77
2018-10-03T18:03:02.478Z,19.67
2018-10-03T18:05:31.768Z,21.43
2018-10-03T18:08:00.829Z,18.87
2018-10-03T18:10:29.992Z,17.33
2018-10-03T18:12:59.103Z,18.10
2018-10-03T18:15:28.210Z,21.13
2018-10-03T18:18:05.043Z,18.17
2018-10-03T18:20:34.673Z,16.83
2018-10-03T18:23:03.675Z,18.03
2018-10-03T18:25:32.770Z,24.40
2018-10-03T18:28:01.839Z,17.90
2018-10-03T18:30:30.836Z,23.30
2018-10-03T18:32:59.878Z,18.93
2018-10-03T18:35:28.895Z,22.23
2018-10-03T18:37:57.998Z,18.47
2018-10-03T18:40:27.108Z,22.27
2018-10-03T18:42:56.134Z,24.37
2018-10-03T18:45:25.260Z,24.70
2018-10-03T18:47:54.331Z,21.93
2018-10-03T18:50:23.430Z,20.87
2018-10-03T18:52:52.430Z,24.07
2018-10-03T18:55:21.530Z,17.77
2018-10-03T18:57:50.602Z,24.83
2018-10-03T19:00:19.670Z,17.80
2018-10-03T19:02:48.685Z,20.60
2018-10-03T19:05:17.787Z,20.40
2018-10-03T19:07:46.994Z,18.77
2018-10-03T19:10:16.262Z,14.33
2018-10-03T19:12:45.256Z,26.27
2018-10-03T19:15:14.270Z,20.60
2018-10-03T19:17:43.273Z,18.93
2018-10-03T19:20:12.402Z,20.27
2018-10-03T19:22:41.325Z,15.07
2018-10-03T19:25:10.377Z,19.60
2018-10-03T19:27:39.461Z,22.27
2018-10-03T19:30:08.528Z,22.90
2018-10-03T19:32:37.639Z,21.70
2018-10-03T19:35:06.697Z,17.87
2018-10-03T19:37:36.141Z,22.50
2018-10-03T19:40:05.261Z,22.57
2018-10-03T19:42:34.315Z,25.23
2018-10-03T19:45:03.427Z,25.17
2018-10-03T19:47:32.509Z,24.07
2018-10-03T19:50:02.555Z,22.63
2018-10-03T19:52:31.637Z,21.80
2018-10-03T19:55:00.773Z,21.27
2018-10-03T19:57:29.886Z,20.97
2018-10-03T19:59:58.949Z,21.10
2018-10-03T20:02:28.001Z,19.33
2018-10-03T20:04:57.003Z,28.10
2018-10-03T20:07:26.107Z,25.50
2018-10-03T20:09:55.197Z,25.03
2018-10-03T20:12:24.268Z,21.17
2018-10-03T20:14:53.382Z,23.83
2018-10-03T20:17:22.485Z,29.10
2018-10-03T20:19:51.543Z,17.03
2018-10-03T20:22:20.570Z,24.67
2018-10-03T20:24:49.584Z,22.47
2018-10-03T20:27:18.649Z,20.97
2018-10-03T20:29:48.675Z,24.17
2018-10-03T20:32:17.675Z,23.20
2018-10-03T20:34:46.668Z,22.27
2018-10-03T20:37:15.740Z,21.00
2018-10-03T20:39:44.817Z,18.10
2018-10-03T20:42:13.814Z,20.80
2018-10-03T20:44:42.849Z,21.97
2018-10-03T20:47:11.921Z,23.47
2018-10-03T20:49:40.992Z,25.13
2018-10-03T20:52:10.001Z,19.40
2018-10-03T20:54:39.019Z,22.67
2018-10-03T20:57:08.111Z,21.53
2018-10-03T20:59:37.180Z,22.53
2018-10-03T21:02:07.451Z,18.83
2018-10-03T21:04:36.557Z,21.87
2018-10-03T21:07:05.666Z,21.13
2018-10-03T21:09:34.683Z,20.30
2018-10-03T21:12:03.697Z,20.27
2018-10-03T21:14:35.761Z,21.00
2018-10-03T21:17:04.853Z,20.23
2018-10-03T21:19:33.925Z,16.47
2018-10-03T21:22:02.905Z,19.77
2018-10-03T21:24:33.603Z,21.07
2018-10-03T21:27:02.985Z,21.87
2018-10-03T21:29:32.045Z,17.50
2018-10-03T21:32:01.079Z,22.87
2018-10-03T21:34:30.125Z,22.77
2018-10-03T21:36:59.167Z,20.83
2018-10-03T21:39:28.306Z,20.43
2018-10-03T21:41:57.343Z,20.70
2018-10-03T21:44:26.319Z,22.77
2018-10-03T21:46:56.611Z,27.93
2018-10-03T21:49:25.648Z,22.67
2018-10-03T21:51:54.749Z,17.03
2018-10-03T21:54:23.938Z,26.07
2018-10-03T21:56:52.911Z,22.47
2018-10-03T21:59:22.009Z,22.13
2018-10-03T22:01:50.957Z,21.03
2018-10-03T22:04:19.994Z,25.37
2018-10-03T22:06:49.079Z,16.80
2018-10-03T22:09:18.095Z,18.37
2018-10-03T22:11:47.078Z,24.80
2018-10-03T22:14:16.102Z,27.47
2018-10-03T22:16:45.164Z,21.37
2018-10-03T22:19:14.164Z,18.23
2018-10-03T22:21:43.138Z,20.63
2018-10-03T22:24:12.155Z,22.80
2018-10-03T22:26:41.185Z,22.67
2018-10-03T22:29:10.283Z,17.83
2018-10-03T22:31:39.649Z,20.53
2018-10-03T22:34:08.634Z,17.07
2018-10-03T22:36:46.286Z,22.60
2018-10-03T22:39:15.346Z,20.50
2018-10-03T22:41:44.412Z,20.10
2018-10-03T22:44:13.466Z,21.50
2018-10-03T22:46:42.642Z,18.97
2018-10-03T22:49:11.722Z,19.37
2018-10-03T22:51:40.832Z,19.40
2018-10-03T22:54:09.929Z,20.00
2018-10-03T22:56:38.995Z,18.90
2018-10-03T22:59:08.117Z,18.40
2018-10-03T23:01:37.175Z,17.57
2018-10-03T23:04:06.487Z,16.07
2018-10-03T23:06:35.506Z,20.00
2018-10-03T23:09:05.064Z,19.80
2018-10-03T23:11:34.107Z,28.97
2018-10-03T23:14:03.192Z,18.50
2018-10-03T23:16:32.400Z,18.47
2018-10-03T23:19:01.692Z,20.10
2018-10-03T23:21:30.771Z,21.87
2018-10-03T23:23:59.781Z,16.03
2018-10-03T23:26:28.869Z,20.10
2018-10-03T23:28:57.927Z,22.73
2018-10-03T23:31:26.952Z,19.63
2018-10-03T23:33:55.929Z,20.80
2018-10-03T23:36:24.949Z,19.93
2018-10-03T23:38:54.051Z,20.80
2018-10-03T23:41:23.023Z,17.20
2018-10-03T23:43:52.063Z,18.03
2018-10-03T23:46:21.120Z,22.90
2018-10-03T23:48:50.147Z,17.57
2018-10-03T23:51:19.153Z,17.27
2018-10-03T23:53:48.179Z,20.03
2018-10-03T23:56:17.199Z,17.10
2018-10-03T23:58:46.227Z,20.93
